Sedov — UELO — position and weather

sailwx.info

Track history (hours):
 
Tides and Currents Weather Stations Pressure Air Temp Water Temp Dewpoint Dewpoint Depression Visibility Wind Speed Wind Dir Waves Ship Positions

Sedov (Russia)

Last reported at 2017-Aug-20 08:10 UTC. Time now 2017-Aug-22 16:54 UTC.
Position N 54°40' E 020°09'.

Length 118 m; draft 6.3 m.

Type: Sailing vessel. MMSI: 273510000.

Date/timePositionNaut miles runAvg speedWind from/ knotsBaromVisibWave heightAir tempDewpointWater temp
2017-Aug-20 08:10N 54°40' E 020°09'0 0.0
2017-Aug-20 07:37N 54°40' E 020°09'0 0.0
2017-Aug-20 07:25N 54°40' E 020°09'0 0.1
2017-Aug-20 06:55N 54°40' E 020°09'0 0.0
2017-Aug-20 06:13N 54°40' E 020°09'0 0.0
2017-Aug-20 05:55N 54°40' E 020°09'0 0.0
2017-Aug-20 05:19N 54°40' E 020°09'0 0.0
2017-Aug-20 04:49N 54°40' E 020°09'0 0.0
2017-Aug-20 04:25N 54°40' E 020°09'0 0.0
2017-Aug-19 01:07N 54°40' E 020°09'0 0.0
2017-Aug-19 00:55N 54°40' E 020°09'0 0.0
2017-Aug-19 00:28N 54°40' E 020°09'0 0.0
2017-Aug-18 23:58N 54°40' E 020°09'0 0.0
2017-Aug-18 23:19N 54°40' E 020°09'0 0.0
2017-Aug-18 22:58N 54°40' E 020°09'0 0.0
2017-Aug-18 20:25N 54°40' E 020°09'0 0.0
2017-Aug-18 04:55N 54°40' E 020°09'0 0.0
2017-Aug-18 04:28N 54°40' E 020°09'0 0.0
2017-Aug-18 03:52N 54°40' E 020°09'0 0.3
2017-Aug-18 03:30N 54°40' E 020°09'1 1.5
2017-Aug-18 02:59N 54°40' E 020°08'3 5.6
2017-Aug-18 02:30N 54°39' E 020°04'4 7.6
2017-Aug-18 02:00N 54°38' E 019°57'4 6.8
2017-Aug-18 01:29N 54°39' E 019°51'2 3.2
2017-Aug-18 01:00N 54°39' E 019°49'1 1.4
2017-Aug-18 00:19N 54°39' E 019°47'0 0.0
2017-Aug-17 23:58N 54°39' E 019°47'0 0.0
2017-Aug-17 23:22N 54°39' E 019°47'0 0.0
2017-Aug-17 22:55N 54°39' E 019°47'0 0.0
2017-Aug-17 22:25N 54°39' E 019°47'0 0.0
2017-Aug-17 18:49N 54°39' E 019°47'0 0.0
2017-Aug-17 17:01N 54°38' E 019°47'0 0.0
2017-Aug-17 16:52N 54°38' E 019°47'0 0.0
2017-Aug-17 16:28N 54°38' E 019°47'0 0.0
2017-Aug-17 15:58N 54°38' E 019°47'0 0.0
2017-Aug-17 15:28N 54°38' E 019°47'0 0.0
2017-Aug-17 14:58N 54°38' E 019°47'0 0.0
2017-Aug-17 14:28N 54°38' E 019°47'0 0.0
2017-Aug-17 13:58N 54°38' E 019°47'0 0.0
2017-Aug-17 13:25N 54°39' E 019°47'0 0.0
2017-Aug-17 12:58N 54°39' E 019°47'0 0.0
2017-Aug-17 12:28N 54°39' E 019°47'0 0.0
2017-Aug-17 11:55N 54°39' E 019°47'0 0.0
2017-Aug-17 11:28N 54°39' E 019°47'0 0.0
2017-Aug-17 10:58N 54°39' E 019°47'0 0.0
2017-Aug-17 10:28N 54°39' E 019°47'0 0.0
2017-Aug-17 09:58N 54°39' E 019°47'0 0.0
2017-Aug-17 09:25N 54°39' E 019°47'0 0.0
2017-Aug-17 08:43N 54°39' E 019°47'0 0.0
2017-Aug-17 08:25N 54°39' E 019°47'0 0.0
2017-Aug-17 07:52N 54°39' E 019°47'0 0.0
2017-Aug-17 07:28N 54°39' E 019°47'0 0.0
2017-Aug-17 06:28N 54°39' E 019°47'0 0.0
2017-Aug-17 05:16N 54°39' E 019°47'0 0.0
2017-Aug-17 04:49N 54°39' E 019°47'0 0.0
2017-Aug-17 04:16N 54°39' E 019°47'0 0.0
2017-Aug-17 03:58N 54°39' E 019°47'0 0.0
2017-Aug-17 03:25N 54°39' E 019°47'0 0.0
2017-Aug-17 02:49N 54°39' E 019°47'0 0.0
2017-Aug-17 02:28N 54°39' E 019°47'0 0.0
2017-Aug-17 01:55N 54°39' E 019°47'0 0.0
2017-Aug-17 01:28N 54°39' E 019°47'0 0.0
2017-Aug-17 00:55N 54°39' E 019°47'0 0.0
2017-Aug-16 23:31N 54°39' E 019°47'0 0.0
2017-Aug-16 23:25N 54°39' E 019°47'0 0.0
2017-Aug-16 22:55N 54°39' E 019°47'0 0.0
2017-Aug-16 22:25N 54°38' E 019°47'0 0.0
2017-Aug-16 21:55N 54°38' E 019°47'0 0.0
2017-Aug-16 21:22N 54°39' E 019°47'0 0.0
2017-Aug-16 18:04N 54°38' E 019°47'0 0.0
2017-Aug-16 17:52N 54°38' E 019°47'0 0.0
2017-Aug-16 17:28N 54°38' E 019°47'0 0.0
2017-Aug-16 16:58N 54°38' E 019°47'0 0.0
2017-Aug-16 16:25N 54°38' E 019°47'0 0.0
2017-Aug-16 15:55N 54°39' E 019°47'0 0.1
2017-Aug-16 15:28N 54°39' E 019°47'0 0.1
2017-Aug-16 14:55N 54°39' E 019°47'0 0.0
2017-Aug-16 14:25N 54°39' E 019°47'7 1.6
2017-Aug-16 10:05N 54°43' E 019°38'1 8.1
2017-Aug-16 10:00N 54°44' E 019°37'4 7.8
2017-Aug-16 09:30N 54°46' E 019°32'4 7.7
2017-Aug-16 08:59N 54°47' E 019°25'4 7.5
2017-Aug-16 08:30N 54°49' E 019°20'4 7.5
2017-Aug-16 08:00N 54°50' E 019°14'4 7.5
2017-Aug-16 07:30N 54°52' E 019°08'4 7.5
2017-Aug-16 07:00N 54°53' E 019°02'4 7.3
2017-Aug-16 06:31N 54°55' E 018°56'4 7.0
2017-Aug-16 06:00N 54°56' E 018°50'3 6.8
2017-Aug-16 05:31N 54°57' E 018°45'3 6.5
2017-Aug-16 05:00N 54°58' E 018°39'3 6.3
2017-Aug-16 04:29N 54°59' E 018°34'3 6.5
2017-Aug-16 04:00N 55°00' E 018°29'3 6.6
2017-Aug-16 03:31N 55°01' E 018°23'3 6.9
2017-Aug-16 03:00N 55°01' E 018°17'4 6.9
2017-Aug-16 02:30N 55°01' E 018°11'3 7.0
2017-Aug-16 02:00N 55°01' E 018°05'4 7.3
2017-Aug-16 01:30N 55°01' E 017°59'4 7.5
2017-Aug-16 01:00N 55°01' E 017°52'4 7.6
2017-Aug-16 00:30N 55°01' E 017°46'4 7.5
2017-Aug-16 00:00N 55°01' E 017°39'4 7.5
2017-Aug-15 23:30N 55°01' E 017°32'4 7.3
2017-Aug-15 23:00N 55°01' E 017°26'4 7.2
2017-Aug-15 22:29N 55°01' E 017°20'4 7.3
2017-Aug-15 22:00N 55°01' E 017°13'4 7.2
2017-Aug-15 21:30N 55°01' E 017°07'4 7.0
2017-Aug-15 21:00N 55°01' E 017°01'3 6.8
2017-Aug-15 20:30N 55°00' E 016°55'3 6.6
2017-Aug-15 20:01N 55°00' E 016°49'3 6.4
2017-Aug-15 19:30N 55°00' E 016°44'3 6.5
2017-Aug-15 19:00N 55°00' E 016°38'2 4.7
2017-Aug-15 18:30N 55°00' E 016°34'0 0.1
2017-Aug-15 18:00N 55°00' E 016°34'1 1.1
2017-Aug-15 17:30N 55°00' E 016°35'1 1.1
2017-Aug-15 16:59N 54°60' E 016°36'1 1.1
2017-Aug-15 16:30N 54°60' E 016°37'1 1.1
2017-Aug-15 16:00N 54°60' E 016°38'0 0.9
2017-Aug-15 15:30N 54°59' E 016°38'0 0.8
2017-Aug-15 15:00N 54°59' E 016°39'0 0.7
2017-Aug-15 14:30N 54°59' E 016°40'7 1.5
2017-Aug-15 09:34N 54°59' E 016°27'1 6.2
2017-Aug-15 09:26N 54°58' E 016°26'4 6.2
2017-Aug-15 08:43N 54°55' E 016°21'2 7.7
2017-Aug-15 08:30N 54°54' E 016°18'36 5.3
2017-Aug-15 01:39N 54°40' E 015°20'1 7.3
2017-Aug-15 01:29N 54°40' E 015°18'5 7.1
2017-Aug-15 00:50N 54°39' E 015°10'2 6.9
2017-Aug-15 00:30N 54°39' E 015°06'3 6.7
2017-Aug-15 00:00N 54°38' E 015°00'3 6.7
2017-Aug-14 23:30N 54°38' E 014°54'45 6.8
2017-Aug-14 16:49N 54°43' E 013°37'25 7.8
2017-Aug-14 13:32N 54°41' E 012°53'0 8.0
2017-Aug-14 13:30N 54°41' E 012°52'12 8.1
2017-Aug-14 12:02N 54°37' E 012°33'0 8.5
2017-Aug-14 12:01N 54°36' E 012°33'8 8.1
2017-Aug-14 11:02N 54°30' E 012°25'0 8.3
2017-Aug-14 11:01N 54°30' E 012°25'5 8.3
2017-Aug-14 10:27N 54°26' E 012°20'4 8.2
2017-Aug-14 09:56N 54°23' E 012°16'5 8.2
2017-Aug-14 09:18N 54°19' E 012°10'4 8.1
2017-Aug-14 08:47N 54°15' E 012°06'3 8.0
2017-Aug-14 08:23N 54°12' E 012°05'2 3.6
2017-Aug-14 07:51N 54°10' E 012°05'0 0.0
2017-Aug-14 07:01N 54°10' E 012°05'0 0.0
2017-Aug-14 06:46N 54°10' E 012°05'0 0.0
2017-Aug-14 06:26N 54°10' E 012°05'0 0.0
2017-Aug-14 05:59N 54°10' E 012°05'0 0.0
2017-Aug-14 03:45N 54°10' E 012°05'0 0.0
2017-Aug-14 03:30N 54°10' E 012°05'0 0.0
2017-Aug-14 02:12N 54°10' E 012°05'0 0.0
2017-Aug-14 01:48N 54°10' E 012°05'0 0.0
2017-Aug-14 01:21N 54°10' E 012°05'0 0.0
2017-Aug-14 01:00N 54°10' E 012°05'0 0.0
2017-Aug-14 00:21N 54°10' E 012°05'0 0.0
2017-Aug-14 00:00N 54°10' E 012°05'0 0.0
2017-Aug-13 23:30N 54°10' E 012°05'0 0.0
2017-Aug-13 22:48N 54°10' E 012°05'0 0.0
2017-Aug-13 21:36N 54°10' E 012°05'0 0.0
2017-Aug-13 14:21N 54°10' E 012°05'0 0.0
2017-Aug-13 12:33N 54°10' E 012°05'0 0.0
2017-Aug-13 12:09N 54°10' E 012°05'0 0.0
2017-Aug-13 10:21N 54°10' E 012°05'0 0.0
2017-Aug-13 07:15N 54°10' E 012°05'0 0.0
2017-Aug-13 07:00N 54°10' E 012°05'0 0.0
2017-Aug-13 04:09N 54°10' E 012°05'0 0.0
2017-Aug-13 03:15N 54°10' E 012°05'0 0.0
2017-Aug-13 02:51N 54°10' E 012°05'0 0.0
2017-Aug-13 02:27N 54°10' E 012°05'0 0.0
2017-Aug-12 21:12N 54°10' E 012°05'0 0.0
2017-Aug-12 21:00N 54°10' E 012°05'1 1.0
2017-Aug-12 20:31N 54°11' E 012°06'5 2.1
2017-Aug-12 18:07N 54°15' E 012°01'3 3.4
2017-Aug-12 17:14N 54°13' E 012°05'2 0.4
2017-Aug-12 13:02N 54°14' E 012°03'0 7.7
2017-Aug-12 13:00N 54°14' E 012°03'4 7.2
2017-Aug-12 12:30N 54°18' E 012°01'2 1.2
2017-Aug-12 10:44N 54°18' E 012°04'1 3.2
2017-Aug-12 10:30N 54°18' E 012°04'2 2.9
2017-Aug-12 09:58N 54°16' E 012°04'1 2.6
2017-Aug-12 09:26N 54°15' E 012°04'5 5.0
2017-Aug-12 08:30N 54°10' E 012°06'0 0.0
2017-Aug-12 07:15N 54°10' E 012°05'0 0.0
2017-Aug-12 03:12N 54°10' E 012°05'0 0.0
2017-Aug-12 01:51N 54°10' E 012°05'0 0.0
2017-Aug-12 01:15N 54°10' E 012°05'0 0.0
2017-Aug-12 01:00N 54°10' E 012°05'0 0.0
2017-Aug-12 00:12N 54°10' E 012°05'0 0.0
2017-Aug-11 22:09N 54°10' E 012°05'0 0.0
2017-Aug-11 19:45N 54°10' E 012°05'0 0.0
2017-Aug-11 19:15N 54°10' E 012°05'0 0.0
2017-Aug-11 19:00N 54°10' E 012°05'0 0.0
2017-Aug-11 16:30N 54°10' E 012°05'0 0.0
2017-Aug-11 15:12N 54°10' E 012°05'0 0.0
2017-Aug-11 14:57N 54°10' E 012°05'0 0.0
2017-Aug-11 12:45N 54°10' E 012°05'0 0.0
2017-Aug-11 12:27N 54°10' E 012°05'0 0.0
2017-Aug-11 11:45N 54°10' E 012°05'0 0.0
2017-Aug-11 08:54N 54°10' E 012°05'0 0.0
2017-Aug-11 07:39N 54°10' E 012°05'0 0.0
2017-Aug-11 07:30N 54°10' E 012°05'0 0.0
2017-Aug-10 17:54N 54°10' E 012°05'0 0.0
2017-Aug-10 17:30N 54°10' E 012°05'0 0.0
2017-Aug-10 16:45N 54°10' E 012°05'0 0.0
2017-Aug-10 16:30N 54°10' E 012°05'0 0.0
2017-Aug-10 15:09N 54°10' E 012°05'0 0.0
2017-Aug-10 15:00N 54°10' E 012°05'0 0.0
2017-Aug-10 14:30N 54°10' E 012°05'0 0.0
2017-Aug-10 13:57N 54°10' E 012°05'0 0.0
2017-Aug-10 13:30N 54°10' E 012°05'0 0.0
2017-Aug-10 12:36N 54°10' E 012°05'0 0.0
2017-Aug-10 12:30N 54°10' E 012°05'0 0.0
2017-Aug-10 11:36N 54°10' E 012°05'0 0.0
2017-Aug-10 11:27N 54°10' E 012°05'0 0.0
2017-Aug-10 10:00N 54°10' E 012°05'0 0.0
2017-Aug-10 09:30N 54°10' E 012°05'0 0.0
2017-Aug-10 08:27N 54°10' E 012°05'  
Track history (hours):
 
Tides and Currents Weather Stations Pressure Air Temp Water Temp Dewpoint Dewpoint Depression Visibility Wind Speed Wind Dir Waves Ship Positions

Sedov (Russia)

Last reported at 2017-Aug-20 08:10 UTC. Time now 2017-Aug-22 16:54 UTC.
Position N 54°40' E 020°09'.

Length 118 m; draft 6.3 m.

Type: Sailing vessel. MMSI: 273510000.

Date/timePositionNaut miles runAvg speedWind from/ knotsBaromVisibWave heightAir tempDewpointWater temp
2017-Aug-20 08:10N 54°40' E 020°09'0 0.0
2017-Aug-20 07:37N 54°40' E 020°09'0 0.0
2017-Aug-20 07:25N 54°40' E 020°09'0 0.1
2017-Aug-20 06:55N 54°40' E 020°09'0 0.0
2017-Aug-20 06:13N 54°40' E 020°09'0 0.0
2017-Aug-20 05:55N 54°40' E 020°09'0 0.0
2017-Aug-20 05:19N 54°40' E 020°09'0 0.0
2017-Aug-20 04:49N 54°40' E 020°09'0 0.0
2017-Aug-20 04:25N 54°40' E 020°09'0 0.0
2017-Aug-19 01:07N 54°40' E 020°09'0 0.0
2017-Aug-19 00:55N 54°40' E 020°09'0 0.0
2017-Aug-19 00:28N 54°40' E 020°09'0 0.0
2017-Aug-18 23:58N 54°40' E 020°09'0 0.0
2017-Aug-18 23:19N 54°40' E 020°09'0 0.0
2017-Aug-18 22:58N 54°40' E 020°09'0 0.0
2017-Aug-18 20:25N 54°40' E 020°09'0 0.0
2017-Aug-18 04:55N 54°40' E 020°09'0 0.0
2017-Aug-18 04:28N 54°40' E 020°09'0 0.0
2017-Aug-18 03:52N 54°40' E 020°09'0 0.3
2017-Aug-18 03:30N 54°40' E 020°09'1 1.5
2017-Aug-18 02:59N 54°40' E 020°08'3 5.6
2017-Aug-18 02:30N 54°39' E 020°04'4 7.6
2017-Aug-18 02:00N 54°38' E 019°57'4 6.8
2017-Aug-18 01:29N 54°39' E 019°51'2 3.2
2017-Aug-18 01:00N 54°39' E 019°49'1 1.4
2017-Aug-18 00:19N 54°39' E 019°47'0 0.0
2017-Aug-17 23:58N 54°39' E 019°47'0 0.0
2017-Aug-17 23:22N 54°39' E 019°47'0 0.0
2017-Aug-17 22:55N 54°39' E 019°47'0 0.0
2017-Aug-17 22:25N 54°39' E 019°47'0 0.0
2017-Aug-17 18:49N 54°39' E 019°47'0 0.0
2017-Aug-17 17:01N 54°38' E 019°47'0 0.0
2017-Aug-17 16:52N 54°38' E 019°47'0 0.0
2017-Aug-17 16:28N 54°38' E 019°47'0 0.0
2017-Aug-17 15:58N 54°38' E 019°47'0 0.0
2017-Aug-17 15:28N 54°38' E 019°47'0 0.0
2017-Aug-17 14:58N 54°38' E 019°47'0 0.0
2017-Aug-17 14:28N 54°38' E 019°47'0 0.0
2017-Aug-17 13:58N 54°38' E 019°47'0 0.0
2017-Aug-17 13:25N 54°39' E 019°47'0 0.0
2017-Aug-17 12:58N 54°39' E 019°47'0 0.0
2017-Aug-17 12:28N 54°39' E 019°47'0 0.0
2017-Aug-17 11:55N 54°39' E 019°47'0 0.0
2017-Aug-17 11:28N 54°39' E 019°47'0 0.0
2017-Aug-17 10:58N 54°39' E 019°47'0 0.0
2017-Aug-17 10:28N 54°39' E 019°47'0 0.0
2017-Aug-17 09:58N 54°39' E 019°47'0 0.0
2017-Aug-17 09:25N 54°39' E 019°47'0 0.0
2017-Aug-17 08:43N 54°39' E 019°47'0 0.0
2017-Aug-17 08:25N 54°39' E 019°47'0 0.0
2017-Aug-17 07:52N 54°39' E 019°47'0 0.0
2017-Aug-17 07:28N 54°39' E 019°47'0 0.0
2017-Aug-17 06:28N 54°39' E 019°47'0 0.0
2017-Aug-17 05:16N 54°39' E 019°47'0 0.0
2017-Aug-17 04:49N 54°39' E 019°47'0 0.0
2017-Aug-17 04:16N 54°39' E 019°47'0 0.0
2017-Aug-17 03:58N 54°39' E 019°47'0 0.0
2017-Aug-17 03:25N 54°39' E 019°47'0 0.0
2017-Aug-17 02:49N 54°39' E 019°47'0 0.0
2017-Aug-17 02:28N 54°39' E 019°47'0 0.0
2017-Aug-17 01:55N 54°39' E 019°47'0 0.0
2017-Aug-17 01:28N 54°39' E 019°47'0 0.0
2017-Aug-17 00:55N 54°39' E 019°47'0 0.0
2017-Aug-16 23:31N 54°39' E 019°47'0 0.0
2017-Aug-16 23:25N 54°39' E 019°47'0 0.0
2017-Aug-16 22:55N 54°39' E 019°47'0 0.0
2017-Aug-16 22:25N 54°38' E 019°47'0 0.0
2017-Aug-16 21:55N 54°38' E 019°47'0 0.0
2017-Aug-16 21:22N 54°39' E 019°47'0 0.0
2017-Aug-16 18:04N 54°38' E 019°47'0 0.0
2017-Aug-16 17:52N 54°38' E 019°47'0 0.0
2017-Aug-16 17:28N 54°38' E 019°47'0 0.0
2017-Aug-16 16:58N 54°38' E 019°47'0 0.0
2017-Aug-16 16:25N 54°38' E 019°47'0 0.0
2017-Aug-16 15:55N 54°39' E 019°47'0 0.1
2017-Aug-16 15:28N 54°39' E 019°47'0 0.1
2017-Aug-16 14:55N 54°39' E 019°47'0 0.0
2017-Aug-16 14:25N 54°39' E 019°47'7 1.6
2017-Aug-16 10:05N 54°43' E 019°38'1 8.1
2017-Aug-16 10:00N 54°44' E 019°37'4 7.8
2017-Aug-16 09:30N 54°46' E 019°32'4 7.7
2017-Aug-16 08:59N 54°47' E 019°25'4 7.5
2017-Aug-16 08:30N 54°49' E 019°20'4 7.5
2017-Aug-16 08:00N 54°50' E 019°14'4 7.5
2017-Aug-16 07:30N 54°52' E 019°08'4 7.5
2017-Aug-16 07:00N 54°53' E 019°02'4 7.3
2017-Aug-16 06:31N 54°55' E 018°56'4 7.0
2017-Aug-16 06:00N 54°56' E 018°50'3 6.8
2017-Aug-16 05:31N 54°57' E 018°45'3 6.5
2017-Aug-16 05:00N 54°58' E 018°39'3 6.3
2017-Aug-16 04:29N 54°59' E 018°34'3 6.5
2017-Aug-16 04:00N 55°00' E 018°29'3 6.6
2017-Aug-16 03:31N 55°01' E 018°23'3 6.9
2017-Aug-16 03:00N 55°01' E 018°17'4 6.9
2017-Aug-16 02:30N 55°01' E 018°11'3 7.0
2017-Aug-16 02:00N 55°01' E 018°05'4 7.3
2017-Aug-16 01:30N 55°01' E 017°59'4 7.5
2017-Aug-16 01:00N 55°01' E 017°52'4 7.6
2017-Aug-16 00:30N 55°01' E 017°46'4 7.5
2017-Aug-16 00:00N 55°01' E 017°39'4 7.5
2017-Aug-15 23:30N 55°01' E 017°32'4 7.3
2017-Aug-15 23:00N 55°01' E 017°26'4 7.2
2017-Aug-15 22:29N 55°01' E 017°20'4 7.3
2017-Aug-15 22:00N 55°01' E 017°13'4 7.2
2017-Aug-15 21:30N 55°01' E 017°07'4 7.0
2017-Aug-15 21:00N 55°01' E 017°01'3 6.8
2017-Aug-15 20:30N 55°00' E 016°55'3 6.6
2017-Aug-15 20:01N 55°00' E 016°49'3 6.4
2017-Aug-15 19:30N 55°00' E 016°44'3 6.5
2017-Aug-15 19:00N 55°00' E 016°38'2 4.7
2017-Aug-15 18:30N 55°00' E 016°34'0 0.1
2017-Aug-15 18:00N 55°00' E 016°34'1 1.1
2017-Aug-15 17:30N 55°00' E 016°35'1 1.1
2017-Aug-15 16:59N 54°60' E 016°36'1 1.1
2017-Aug-15 16:30N 54°60' E 016°37'1 1.1
2017-Aug-15 16:00N 54°60' E 016°38'0 0.9
2017-Aug-15 15:30N 54°59' E 016°38'0 0.8
2017-Aug-15 15:00N 54°59' E 016°39'0 0.7
2017-Aug-15 14:30N 54°59' E 016°40'7 1.5
2017-Aug-15 09:34N 54°59' E 016°27'1 6.2
2017-Aug-15 09:26N 54°58' E 016°26'4 6.2
2017-Aug-15 08:43N 54°55' E 016°21'2 7.7
2017-Aug-15 08:30N 54°54' E 016°18'36 5.3
2017-Aug-15 01:39N 54°40' E 015°20'1 7.3
2017-Aug-15 01:29N 54°40' E 015°18'5 7.1
2017-Aug-15 00:50N 54°39' E 015°10'2 6.9
2017-Aug-15 00:30N 54°39' E 015°06'3 6.7
2017-Aug-15 00:00N 54°38' E 015°00'3 6.7
2017-Aug-14 23:30N 54°38' E 014°54'45 6.8
2017-Aug-14 16:49N 54°43' E 013°37'25 7.8
2017-Aug-14 13:32N 54°41' E 012°53'0 8.0
2017-Aug-14 13:30N 54°41' E 012°52'12 8.1
2017-Aug-14 12:02N 54°37' E 012°33'0 8.5
2017-Aug-14 12:01N 54°36' E 012°33'8 8.1
2017-Aug-14 11:02N 54°30' E 012°25'0 8.3
2017-Aug-14 11:01N 54°30' E 012°25'5 8.3
2017-Aug-14 10:27N 54°26' E 012°20'4 8.2
2017-Aug-14 09:56N 54°23' E 012°16'5 8.2
2017-Aug-14 09:18N 54°19' E 012°10'4 8.1
2017-Aug-14 08:47N 54°15' E 012°06'3 8.0
2017-Aug-14 08:23N 54°12' E 012°05'2 3.6
2017-Aug-14 07:51N 54°10' E 012°05'0 0.0
2017-Aug-14 07:01N 54°10' E 012°05'0 0.0
2017-Aug-14 06:46N 54°10' E 012°05'0 0.0
2017-Aug-14 06:26N 54°10' E 012°05'0 0.0
2017-Aug-14 05:59N 54°10' E 012°05'0 0.0
2017-Aug-14 03:45N 54°10' E 012°05'0 0.0
2017-Aug-14 03:30N 54°10' E 012°05'0 0.0
2017-Aug-14 02:12N 54°10' E 012°05'0 0.0
2017-Aug-14 01:48N 54°10' E 012°05'0 0.0
2017-Aug-14 01:21N 54°10' E 012°05'0 0.0
2017-Aug-14 01:00N 54°10' E 012°05'0 0.0
2017-Aug-14 00:21N 54°10' E 012°05'0 0.0
2017-Aug-14 00:00N 54°10' E 012°05'0 0.0
2017-Aug-13 23:30N 54°10' E 012°05'0 0.0
2017-Aug-13 22:48N 54°10' E 012°05'0 0.0
2017-Aug-13 21:36N 54°10' E 012°05'0 0.0
2017-Aug-13 14:21N 54°10' E 012°05'0 0.0
2017-Aug-13 12:33N 54°10' E 012°05'0 0.0
2017-Aug-13 12:09N 54°10' E 012°05'0 0.0
2017-Aug-13 10:21N 54°10' E 012°05'0 0.0
2017-Aug-13 07:15N 54°10' E 012°05'0 0.0
2017-Aug-13 07:00N 54°10' E 012°05'0 0.0
2017-Aug-13 04:09N 54°10' E 012°05'0 0.0
2017-Aug-13 03:15N 54°10' E 012°05'0 0.0
2017-Aug-13 02:51N 54°10' E 012°05'0 0.0
2017-Aug-13 02:27N 54°10' E 012°05'0 0.0
2017-Aug-12 21:12N 54°10' E 012°05'0 0.0
2017-Aug-12 21:00N 54°10' E 012°05'1 1.0
2017-Aug-12 20:31N 54°11' E 012°06'5 2.1
2017-Aug-12 18:07N 54°15' E 012°01'3 3.4
2017-Aug-12 17:14N 54°13' E 012°05'2 0.4
2017-Aug-12 13:02N 54°14' E 012°03'0 7.7
2017-Aug-12 13:00N 54°14' E 012°03'4 7.2
2017-Aug-12 12:30N 54°18' E 012°01'2 1.2
2017-Aug-12 10:44N 54°18' E 012°04'1 3.2
2017-Aug-12 10:30N 54°18' E 012°04'2 2.9
2017-Aug-12 09:58N 54°16' E 012°04'1 2.6
2017-Aug-12 09:26N 54°15' E 012°04'5 5.0
2017-Aug-12 08:30N 54°10' E 012°06'0 0.0
2017-Aug-12 07:15N 54°10' E 012°05'0 0.0
2017-Aug-12 03:12N 54°10' E 012°05'0 0.0
2017-Aug-12 01:51N 54°10' E 012°05'0 0.0
2017-Aug-12 01:15N 54°10' E 012°05'0 0.0
2017-Aug-12 01:00N 54°10' E 012°05'0 0.0
2017-Aug-12 00:12N 54°10' E 012°05'0 0.0
2017-Aug-11 22:09N 54°10' E 012°05'0 0.0
2017-Aug-11 19:45N 54°10' E 012°05'0 0.0
2017-Aug-11 19:15N 54°10' E 012°05'0 0.0
2017-Aug-11 19:00N 54°10' E 012°05'0 0.0
2017-Aug-11 16:30N 54°10' E 012°05'0 0.0
2017-Aug-11 15:12N 54°10' E 012°05'0 0.0
2017-Aug-11 14:57N 54°10' E 012°05'0 0.0
2017-Aug-11 12:45N 54°10' E 012°05'0 0.0
2017-Aug-11 12:27N 54°10' E 012°05'0 0.0
2017-Aug-11 11:45N 54°10' E 012°05'0 0.0
2017-Aug-11 08:54N 54°10' E 012°05'0 0.0
2017-Aug-11 07:39N 54°10' E 012°05'0 0.0
2017-Aug-11 07:30N 54°10' E 012°05'0 0.0
2017-Aug-10 17:54N 54°10' E 012°05'0 0.0
2017-Aug-10 17:30N 54°10' E 012°05'0 0.0
2017-Aug-10 16:45N 54°10' E 012°05'0 0.0
2017-Aug-10 16:30N 54°10' E 012°05'0 0.0
2017-Aug-10 15:09N 54°10' E 012°05'0 0.0
2017-Aug-10 15:00N 54°10' E 012°05'0 0.0
2017-Aug-10 14:30N 54°10' E 012°05'0 0.0
2017-Aug-10 13:57N 54°10' E 012°05'0 0.0
2017-Aug-10 13:30N 54°10' E 012°05'0 0.0
2017-Aug-10 12:36N 54°10' E 012°05'0 0.0
2017-Aug-10 12:30N 54°10' E 012°05'0 0.0
2017-Aug-10 11:36N 54°10' E 012°05'0 0.0
2017-Aug-10 11:27N 54°10' E 012°05'0 0.0
2017-Aug-10 10:00N 54°10' E 012°05'0 0.0
2017-Aug-10 09:30N 54°10' E 012°05'0 0.0
2017-Aug-10 08:27N 54°10' E 012°05'  

Dump ship's entire track history